Fountain Lake, Arkansas
Current Conditions -  °F | °C
As of 1:53 AM on Thursday 27 Nov 2014 (Local Time) from KHOT Reporting Station
Clear Clear  
Wind Chill: 36°   Ceiling: Unl
Heat Index: 41°   Visibility: 10mi
Dew Point: 27°   Wind: 7mph
Humidity: 57%   Direction: 330°NNW
Pressure: 30.36"   Gusts: NA
Location:  34.5331°N, 93.0035°W
Report Text: KHOT 270753Z AUTO 33006KT 10SM CLR 05/M03 A3036 RMK AO2 SLP278 T00501028
Loading
Personal Weather Stations






























Interactive Weather Map New forecast layout! Learn more

10-Day Weather Forecast

Advertisements
Track Severe Weather on mobile